createdAt,value
2023-05-19T00:01:15.060Z,2.3
2023-05-19T00:06:15.067Z,2.3
2023-05-19T00:11:15.079Z,2.3
2023-05-19T00:16:15.110Z,2.4
2023-05-19T00:21:15.069Z,2.4
2023-05-19T00:26:15.061Z,2.6
2023-05-19T00:31:15.067Z,2.3
2023-05-19T00:36:15.069Z,2.4
2023-05-19T00:41:15.030Z,2.4
2023-05-19T00:46:15.036Z,2.4
2023-05-19T00:51:15.046Z,2.4
2023-05-19T00:56:15.056Z,2.4
2023-05-19T01:01:15.068Z,2.4
2023-05-19T01:06:15.078Z,2.4
2023-05-19T01:11:15.075Z,2.4
2023-05-19T01:16:15.066Z,2.3
2023-05-19T01:21:15.084Z,2.4
2023-05-19T01:26:15.078Z,2.4
2023-05-19T01:31:15.109Z,2.4
2023-05-19T01:36:15.092Z,2.4
2023-05-19T01:41:15.072Z,2.3
2023-05-19T01:46:15.063Z,2.4
2023-05-19T01:51:15.047Z,2.4
2023-05-19T01:56:15.040Z,2.3
2023-05-19T02:01:15.092Z,2.3
2023-05-19T02:06:15.080Z,2.2
2023-05-19T02:11:15.087Z,2.2
2023-05-19T02:16:15.100Z,2.2
2023-05-19T02:21:15.060Z,2.2
2023-05-19T02:26:15.046Z,2.2
2023-05-19T02:31:15.047Z,2.3
2023-05-19T02:36:15.085Z,2.2
2023-05-19T02:41:15.055Z,2.3
2023-05-19T02:46:15.100Z,2.4
2023-05-19T02:51:15.096Z,2.4
2023-05-19T02:56:15.140Z,2.4
2023-05-19T03:01:15.100Z,2.4
2023-05-19T03:06:15.085Z,2.2
2023-05-19T03:11:15.074Z,2.3
2023-05-19T03:16:15.029Z,2.3
2023-05-19T03:21:15.074Z,2.3
2023-05-19T03:26:15.076Z,2.2
2023-05-19T03:31:15.078Z,2.3
2023-05-19T03:36:15.176Z,2.3
2023-05-19T03:41:15.324Z,2.3
2023-05-19T03:46:15.101Z,2.3
2023-05-19T03:51:15.060Z,2.4
2023-05-19T03:56:15.111Z,2.4
2023-05-19T04:01:16.081Z,2.4
2023-05-19T04:06:15.106Z,2.4
2023-05-19T04:11:15.110Z,2.4
2023-05-19T04:16:15.138Z,2.6
2023-05-19T04:21:15.081Z,2.6
2023-05-19T04:26:15.052Z,2.4
2023-05-19T04:31:15.124Z,2.9
2023-05-19T04:36:15.080Z,2.9
2023-05-19T04:41:15.106Z,3.1
2023-05-19T04:46:16.133Z,3.1
2023-05-19T04:51:15.095Z,3.1
2023-05-19T04:56:15.192Z,3.1
2023-05-19T05:01:15.083Z,3.3
2023-05-19T05:06:15.091Z,3.3
2023-05-19T05:11:15.054Z,3.5
2023-05-19T05:16:15.141Z,3.5
2023-05-19T05:21:15.091Z,3.4
2023-05-19T05:26:15.127Z,3.3
2023-05-19T05:31:15.130Z,3.3
2023-05-19T05:36:15.083Z,3.4
2023-05-19T05:41:15.270Z,3.4
2023-05-19T05:46:15.099Z,3.3
2023-05-19T05:51:15.081Z,3.2
2023-05-19T05:56:15.085Z,3.2
2023-05-19T06:01:15.118Z,3
2023-05-19T06:06:15.066Z,3
2023-05-19T06:11:15.100Z,3
2023-05-19T06:16:15.116Z,2.9
2023-05-19T06:21:15.128Z,2.6
2023-05-19T06:26:15.104Z,2.6
2023-05-19T06:31:15.148Z,2.6
2023-05-19T06:36:15.118Z,2.6
2023-05-19T06:41:15.101Z,2.7
2023-05-19T06:46:15.132Z,2.6
2023-05-19T06:51:15.146Z,2.5
2023-05-19T06:56:15.121Z,2.7
2023-05-19T07:01:15.143Z,2.7
2023-05-19T07:06:15.164Z,2.7
2023-05-19T07:11:15.113Z,2.7
2023-05-19T07:16:15.160Z,2.8
2023-05-19T07:21:15.153Z,2.9
2023-05-19T07:26:15.088Z,2.9
2023-05-19T07:31:15.133Z,3
2023-05-19T07:36:15.131Z,2.9
2023-05-19T07:41:15.106Z,2.9
2023-05-19T07:46:15.158Z,2.9
2023-05-19T07:51:15.111Z,2.9
2023-05-19T07:56:16.119Z,2.9
2023-05-19T08:01:15.236Z,2.7
2023-05-19T08:06:15.116Z,2.7
2023-05-19T08:11:15.103Z,2.7
2023-05-19T08:16:15.104Z,2.6
2023-05-19T08:21:15.183Z,2.5
2023-05-19T08:26:15.144Z,2.5
2023-05-19T08:31:15.150Z,2.5
2023-05-19T08:36:15.141Z,2.6
2023-05-19T08:41:15.139Z,2.6
2023-05-19T08:46:15.194Z,2.6
2023-05-19T08:51:15.129Z,2.6
2023-05-19T08:56:15.130Z,2.6
2023-05-19T09:01:15.125Z,2.5
2023-05-19T09:06:15.167Z,2.2
2023-05-19T09:11:15.231Z,2.2
2023-05-19T09:16:15.142Z,2
2023-05-19T09:21:15.137Z,2
2023-05-19T09:26:15.109Z,2
2023-05-19T09:31:15.121Z,2
2023-05-19T09:36:15.138Z,1.9
2023-05-19T09:41:15.098Z,1.9
2023-05-19T09:46:16.168Z,1.9
2023-05-19T09:51:15.143Z,1.9
2023-05-19T09:56:15.315Z,1.9
2023-05-19T10:01:15.166Z,1.9
2023-05-19T10:06:15.146Z,1.8
2023-05-19T10:11:15.169Z,1.8
2023-05-19T10:16:15.164Z,1.8
2023-05-19T10:21:15.146Z,1.8
2023-05-19T10:26:15.406Z,1.8
2023-05-19T10:31:15.164Z,1.8
2023-05-19T10:36:15.245Z,1.8
2023-05-19T10:41:15.438Z,1.9
2023-05-19T10:46:15.191Z,2
2023-05-19T10:51:15.215Z,2.1
2023-05-19T10:56:15.116Z,2.1
2023-05-19T11:01:15.134Z,2.1
2023-05-19T11:06:15.120Z,2
2023-05-19T11:11:15.163Z,1.8
2023-05-19T11:16:15.180Z,1.8
2023-05-19T11:21:15.160Z,1.7
2023-05-19T11:26:15.162Z,1.7
2023-05-19T11:31:15.219Z,1.7
2023-05-19T11:36:15.198Z,1.7
2023-05-19T11:41:15.245Z,1.7
2023-05-19T11:46:15.193Z,1.7
2023-05-19T11:51:15.240Z,1.7
2023-05-19T11:56:15.128Z,1.7
2023-05-19T12:01:15.162Z,2
2023-05-19T12:06:15.195Z,1.7
2023-05-19T12:11:15.149Z,1.7
2023-05-19T12:16:15.138Z,1.7
2023-05-19T12:21:15.188Z,1.7
2023-05-19T12:26:15.176Z,1.7
2023-05-19T12:31:15.242Z,1.7
2023-05-19T12:36:15.163Z,1.7
2023-05-19T12:41:15.178Z,1.6
2023-05-19T12:46:15.203Z,1.6
2023-05-19T12:51:15.166Z,1.6
2023-05-19T12:56:15.224Z,1.6
2023-05-19T13:01:15.364Z,1.6
2023-05-19T13:06:15.359Z,1.6
2023-05-19T13:11:15.150Z,1.6
2023-05-19T13:16:15.182Z,1.6
2023-05-19T13:21:15.207Z,1.6
2023-05-19T13:26:15.180Z,1.6
2023-05-19T13:31:15.168Z,1.6
2023-05-19T13:36:15.249Z,1.6
2023-05-19T13:41:18.136Z,1.6
2023-05-19T13:46:15.450Z,1.6
2023-05-19T13:51:15.185Z,1.6
2023-05-19T13:56:15.272Z,1.5
2023-05-19T14:01:15.210Z,1.5
2023-05-19T14:06:15.243Z,1.5
2023-05-19T14:11:15.206Z,1.5
2023-05-19T14:16:15.278Z,1.5
2023-05-19T14:21:15.197Z,1.8
2023-05-19T14:26:15.277Z,1.8
2023-05-19T14:31:15.204Z,1.8
2023-05-19T14:36:15.220Z,1.8
2023-05-19T14:41:15.192Z,1.8
2023-05-19T14:46:19.872Z,1.8
2023-05-19T14:51:15.228Z,1.7
2023-05-19T14:56:15.271Z,1.5
2023-05-19T15:01:16.299Z,1.4
2023-05-19T15:06:15.236Z,1.4
2023-05-19T15:11:16.397Z,1.4
2023-05-19T15:16:19.219Z,1.3
2023-05-19T15:21:15.227Z,1.3
2023-05-19T15:26:15.237Z,1.3
2023-05-19T15:31:15.274Z,1.3
2023-05-19T15:36:15.194Z,1.3
2023-05-19T15:41:15.261Z,1.5
2023-05-19T15:46:16.305Z,1.6
2023-05-19T15:51:15.219Z,1.6
2023-05-19T15:56:15.259Z,1.6
2023-05-19T16:01:15.254Z,1.6
2023-05-19T16:06:15.216Z,1.6
2023-05-19T16:11:15.284Z,1.6
2023-05-19T16:16:15.334Z,1.6
2023-05-19T16:21:15.261Z,1.7
2023-05-19T16:26:15.258Z,1.7
2023-05-19T16:31:15.231Z,1.7
2023-05-19T16:36:15.192Z,1.6
2023-05-19T16:41:15.494Z,1.5
2023-05-19T16:46:15.651Z,1.5
2023-05-19T16:51:15.211Z,1.5
2023-05-19T16:56:15.282Z,1.5
2023-05-19T17:01:15.211Z,1.5
2023-05-19T17:06:15.278Z,1.6
2023-05-19T17:11:15.234Z,1.6
2023-05-19T17:16:15.359Z,1.6
2023-05-19T17:21:15.625Z,1.7
2023-05-19T17:26:17.721Z,2
2023-05-19T17:31:15.282Z,1.9
2023-05-19T17:36:18.294Z,1.7
2023-05-19T17:41:15.435Z,1.9
2023-05-19T17:46:15.495Z,1.9
2023-05-19T17:51:15.837Z,1.9
2023-05-19T17:56:15.225Z,1.9
2023-05-19T18:01:16.577Z,1.9
2023-05-19T18:06:15.255Z,1.9
2023-05-19T18:11:15.266Z,1.9
2023-05-19T18:16:15.281Z,2
2023-05-19T18:21:15.244Z,2
2023-05-19T18:26:15.266Z,2.1
2023-05-19T18:31:16.297Z,2.1
2023-05-19T18:36:16.270Z,2
2023-05-19T18:41:15.279Z,1.9
2023-05-19T18:46:15.365Z,1.9
2023-05-19T18:51:15.266Z,1.9
2023-05-19T18:56:15.290Z,1.9
2023-05-19T19:01:15.339Z,1.9
2023-05-19T19:06:15.313Z,1.9
2023-05-19T19:11:15.226Z,2
2023-05-19T19:16:15.277Z,2
2023-05-19T19:21:15.222Z,2.1
2023-05-19T19:26:15.268Z,2
2023-05-19T19:31:15.632Z,2
2023-05-19T19:36:15.292Z,2
2023-05-19T19:41:15.305Z,2
2023-05-19T19:46:15.275Z,2
2023-05-19T19:51:15.303Z,2
2023-05-19T19:56:15.268Z,2
2023-05-19T20:01:15.352Z,2
2023-05-19T20:06:15.318Z,2
2023-05-19T20:11:15.306Z,2
2023-05-19T20:16:15.352Z,2.1
2023-05-19T20:21:15.320Z,2.1
2023-05-19T20:26:15.319Z,2.2
2023-05-19T20:31:15.307Z,2.2
2023-05-19T20:36:15.299Z,2.4
2023-05-19T20:41:15.267Z,2.6
2023-05-19T20:46:15.279Z,2.6
2023-05-19T20:51:15.275Z,2.6
2023-05-19T20:56:15.302Z,2.8
2023-05-19T21:01:16.319Z,2.8
2023-05-19T21:06:16.298Z,2.8
2023-05-19T21:11:16.301Z,3
2023-05-19T21:16:16.341Z,2.9
2023-05-19T21:21:16.312Z,2.9
2023-05-19T21:26:16.287Z,2.8
2023-05-19T21:31:16.320Z,2.9
2023-05-19T21:36:16.315Z,2.9
2023-05-19T21:41:16.328Z,2.9
2023-05-19T21:46:16.367Z,2.9
2023-05-19T21:51:16.322Z,3
2023-05-19T21:56:16.422Z,3.1
2023-05-19T22:01:16.335Z,3.2
2023-05-19T22:06:16.296Z,3.2
2023-05-19T22:11:16.291Z,3.2
2023-05-19T22:16:17.377Z,3.4
2023-05-19T22:21:16.301Z,3.2
2023-05-19T22:26:16.396Z,3.4
2023-05-19T22:31:16.514Z,3.4
2023-05-19T22:36:16.299Z,3.4
2023-05-19T22:41:16.393Z,3.4
2023-05-19T22:46:16.450Z,3.4
2023-05-19T22:51:16.289Z,3.4
2023-05-19T22:56:16.405Z,3.4
2023-05-19T23:01:16.569Z,3.4
2023-05-19T23:06:16.368Z,3.4
2023-05-19T23:11:16.335Z,3.4
2023-05-19T23:16:16.661Z,3.4
2023-05-19T23:21:16.358Z,3.5
2023-05-19T23:26:16.304Z,3.6
2023-05-19T23:31:16.345Z,3.5
2023-05-19T23:36:16.355Z,3.6
2023-05-19T23:41:16.328Z,3.6
2023-05-19T23:46:16.388Z,3.6
2023-05-19T23:51:16.340Z,3.5
2023-05-19T23:56:16.382Z,3.6
